Time;durP1;ratioP1;P1;durP2;ratioP2;P2;SDS_P1;SDS_P2;PMS_P1;PMS_P2;Temp;Humidity;BMP_temperature;BMP_pressure;BME280_temperature;BME280_humidity;BME280_pressure;Samples;Min_cycle;Max_cycle;Signal;HPM_P1;HPM_P2
2021/11/23 00:00:55;;;;;;;27.67;17.00;;;;;;;;;;5054604;28;20064;-67
2021/11/23 00:03:21;;;;;;;26.10;16.02;;;;;;;;;;5054435;28;20033;-67
2021/11/23 00:05:48;;;;;;;26.65;16.25;;;;;;;;;;5054424;28;20493;-67
2021/11/23 00:08:14;;;;;;;23.13;13.82;;;;;;;;;;5054605;28;20549;-67
2021/11/23 00:10:40;;;;;;;22.75;14.32;;;;;;;;;;5054295;28;20029;-67
2021/11/23 00:13:06;;;;;;;25.35;15.90;;;;;;;;;;5054656;28;20159;-67
2021/11/23 00:15:35;;;;;;;25.33;15.77;;;;;;;;;;5054317;28;20017;-68
2021/11/23 00:18:04;;;;;;;26.75;16.38;;;;;;;;;;5036287;28;20041;-70
2021/11/23 00:20:30;;;;;;;31.40;19.38;;;;;;;;;;5035794;28;20039;-71
2021/11/23 00:22:58;;;;;;;28.90;17.58;;;;;;;;;;5020144;28;20045;-71
2021/11/23 00:25:23;;;;;;;31.70;18.50;;;;;;;;;;5054377;28;20075;-69
2021/11/23 00:27:49;;;;;;;37.72;19.67;;;;;;;;;;5054077;28;20033;-68
2021/11/23 00:30:14;;;;;;;34.42;20.02;;;;;;;;;;5054171;28;20484;-67
2021/11/23 00:32:40;;;;;;;34.45;19.85;;;;;;;;;;5054125;28;20042;-67
2021/11/23 00:35:05;;;;;;;36.50;19.75;;;;;;;;;;5054120;28;20043;-68
2021/11/23 00:37:31;;;;;;;35.03;19.67;;;;;;;;;;5053758;28;20041;-68
2021/11/23 00:39:57;;;;;;;41.80;20.35;;;;;;;;;;5054169;28;20029;-68
2021/11/23 00:42:22;;;;;;;40.28;21.83;;;;;;;;;;5053996;28;20064;-68
2021/11/23 00:44:48;;;;;;;45.85;25.23;;;;;;;;;;5053877;28;20385;-70
2021/11/23 00:47:14;;;;;;;44.60;24.67;;;;;;;;;;5053382;28;20037;-71
2021/11/23 00:49:39;;;;;;;39.42;22.45;;;;;;;;;;5053719;28;20037;-70
2021/11/23 00:52:05;;;;;;;45.67;25.67;;;;;;;;;;5053520;28;20048;-70
2021/11/23 00:54:30;;;;;;;47.83;24.65;;;;;;;;;;5053357;28;20507;-70
2021/11/23 00:56:56;;;;;;;41.53;22.45;;;;;;;;;;5053593;28;20036;-70
2021/11/23 00:59:21;;;;;;;41.28;22.35;;;;;;;;;;5053483;28;20036;-70
2021/11/23 01:01:47;;;;;;;39.67;21.83;;;;;;;;;;5035645;28;20041;-71
2021/11/23 01:04:12;;;;;;;40.33;22.25;;;;;;;;;;5035810;28;20021;-71
2021/11/23 01:06:37;;;;;;;36.80;20.88;;;;;;;;;;5053781;28;20389;-68
2021/11/23 01:09:03;;;;;;;36.90;20.42;;;;;;;;;;5035593;28;20449;-66
2021/11/23 01:11:28;;;;;;;37.90;21.08;;;;;;;;;;5053506;28;20428;-66
2021/11/23 01:13:54;;;;;;;38.28;21.17;;;;;;;;;;5053411;28;20033;-69
2021/11/23 01:16:20;;;;;;;35.63;19.85;;;;;;;;;;5053355;28;20473;-68
2021/11/23 01:18:47;;;;;;;40.45;20.48;;;;;;;;;;5053366;28;20029;-66
2021/11/23 01:21:14;;;;;;;34.30;19.63;;;;;;;;;;5053103;28;20170;-67
2021/11/23 01:23:39;;;;;;;38.30;20.75;;;;;;;;;;5053388;28;20021;-67
2021/11/23 01:26:06;;;;;;;39.78;20.42;;;;;;;;;;5052898;28;20028;-67
2021/11/23 01:28:32;;;;;;;39.53;21.20;;;;;;;;;;5053179;28;20025;-67
2021/11/23 01:31:00;;;;;;;38.25;20.90;;;;;;;;;;5034264;28;20037;-67
2021/11/23 01:33:25;;;;;;;39.05;21.25;;;;;;;;;;5053058;28;20027;-67
2021/11/23 01:35:53;;;;;;;40.13;21.65;;;;;;;;;;5053310;28;20036;-68
2021/11/23 01:38:18;;;;;;;39.33;20.70;;;;;;;;;;5053056;28;20354;-68
2021/11/23 01:40:45;;;;;;;33.70;19.25;;;;;;;;;;5053292;28;20025;-68
2021/11/23 01:43:10;;;;;;;35.40;19.73;;;;;;;;;;5053146;28;20448;-68
2021/11/23 01:45:37;;;;;;;33.40;19.52;;;;;;;;;;5035276;28;20123;-68
2021/11/23 01:48:03;;;;;;;33.88;18.23;;;;;;;;;;5052533;28;20041;-68
2021/11/23 01:50:29;;;;;;;34.28;18.92;;;;;;;;;;5053038;28;20041;-68
2021/11/23 01:52:56;;;;;;;36.47;19.27;;;;;;;;;;5053169;28;20032;-68
2021/11/23 01:55:22;;;;;;;31.08;17.77;;;;;;;;;;5052895;28;20404;-68
2021/11/23 01:57:48;;;;;;;32.67;17.85;;;;;;;;;;5052721;28;20039;-68
2021/11/23 02:00:13;;;;;;;30.67;17.00;;;;;;;;;;5052644;28;20132;-68
2021/11/23 02:02:43;;;;;;;27.75;15.45;;;;;;;;;;5052903;28;20049;-68
2021/11/23 02:05:09;;;;;;;27.90;16.05;;;;;;;;;;5052686;28;20084;-67
2021/11/23 02:07:34;;;;;;;29.55;15.80;;;;;;;;;;5035027;28;20058;-67
2021/11/23 02:10:00;;;;;;;26.65;14.85;;;;;;;;;;5052762;28;20036;-67
2021/11/23 02:12:26;;;;;;;26.67;14.63;;;;;;;;;;5052862;28;20025;-68
2021/11/23 02:14:52;;;;;;;29.13;14.93;;;;;;;;;;5052837;28;20036;-67
2021/11/23 02:17:17;;;;;;;23.77;13.88;;;;;;;;;;5053013;28;20373;-67
2021/11/23 02:19:44;;;;;;;21.58;12.95;;;;;;;;;;5052691;28;20040;-67
2021/11/23 02:22:10;;;;;;;21.27;12.60;;;;;;;;;;5052608;28;20469;-70
2021/11/23 02:24:35;;;;;;;19.85;11.98;;;;;;;;;;5018494;28;20091;-71
2021/11/23 02:27:01;;;;;;;23.55;13.07;;;;;;;;;;5052907;28;20396;-70
2021/11/23 02:29:26;;;;;;;20.23;12.00;;;;;;;;;;5052663;28;20041;-70
2021/11/23 02:31:52;;;;;;;21.20;11.32;;;;;;;;;;5052533;28;20037;-70
2021/11/23 02:34:17;;;;;;;19.02;10.88;;;;;;;;;;5052793;28;20133;-67
2021/11/23 02:36:43;;;;;;;17.58;9.98;;;;;;;;;;5052573;28;20044;-67
2021/11/23 02:39:08;;;;;;;14.23;9.07;;;;;;;;;;5052671;28;20037;-67
2021/11/23 02:41:35;;;;;;;14.45;8.70;;;;;;;;;;5052545;28;20025;-67
2021/11/23 02:44:00;;;;;;;11.50;8.25;;;;;;;;;;5056043;28;20087;-68
2021/11/23 02:46:26;;;;;;;14.32;8.18;;;;;;;;;;5056168;28;20460;-67
2021/11/23 02:48:51;;;;;;;14.63;8.63;;;;;;;;;;5055995;28;20056;-70
2021/11/23 02:51:18;;;;;;;12.70;7.47;;;;;;;;;;5021670;28;20183;-70
2021/11/23 02:53:45;;;;;;;15.48;7.95;;;;;;;;;;5038351;28;20087;-70
2021/11/23 02:56:10;;;;;;;13.07;7.10;;;;;;;;;;5038275;28;20075;-70
2021/11/23 02:58:36;;;;;;;12.23;7.20;;;;;;;;;;5055903;28;20424;-67
2021/11/23 03:01:04;;;;;;;12.05;6.90;;;;;;;;;;5038322;28;20469;-67
2021/11/23 03:03:30;;;;;;;12.98;6.82;;;;;;;;;;5055668;28;20037;-66
2021/11/23 03:05:56;;;;;;;10.90;6.80;;;;;;;;;;5055752;28;20022;-67
2021/11/23 03:08:22;;;;;;;11.27;6.80;;;;;;;;;;5055694;28;20029;-68
2021/11/23 03:10:48;;;;;;;10.65;6.93;;;;;;;;;;5055477;28;20378;-67
2021/11/23 03:13:13;;;;;;;10.30;6.45;;;;;;;;;;5055557;28;20099;-67
2021/11/23 03:15:39;;;;;;;10.07;6.68;;;;;;;;;;5055713;28;20040;-67
2021/11/23 03:18:06;;;;;;;9.02;6.38;;;;;;;;;;5055335;28;20036;-67
2021/11/23 03:20:32;;;;;;;9.63;6.40;;;;;;;;;;5055662;28;20048;-67
2021/11/23 03:22:58;;;;;;;13.45;6.97;;;;;;;;;;5055307;28;20041;-67
2021/11/23 03:25:24;;;;;;;8.32;5.80;;;;;;;;;;5055194;28;20056;-67
2021/11/23 03:27:50;;;;;;;9.00;5.78;;;;;;;;;;5055587;28;20072;-66
2021/11/23 03:30:20;;;;;;;9.27;5.57;;;;;;;;;;5055244;28;20029;-71
2021/11/23 03:32:46;;;;;;;8.10;5.53;;;;;;;;;;5055231;28;20045;-70
2021/11/23 03:35:13;;;;;;;7.38;4.40;;;;;;;;;;5037275;28;20043;-70
2021/11/23 03:37:39;;;;;;;6.13;3.92;;;;;;;;;;5055137;28;20177;-68
2021/11/23 03:40:05;;;;;;;5.18;3.35;;;;;;;;;;5054956;28;20029;-71
2021/11/23 03:42:30;;;;;;;4.28;3.65;;;;;;;;;;5054775;28;20048;-71
2021/11/23 03:44:58;;;;;;;4.53;3.50;;;;;;;;;;5054930;28;20388;-71
2021/11/23 03:47:25;;;;;;;3.72;3.00;;;;;;;;;;5054825;28;20029;-71
2021/11/23 03:49:50;;;;;;;3.22;2.92;;;;;;;;;;5054964;28;20033;-71
2021/11/23 03:52:16;;;;;;;3.40;2.60;;;;;;;;;;5054936;28;20399;-71
2021/11/23 03:54:42;;;;;;;2.92;2.65;;;;;;;;;;5053925;28;20033;-71
2021/11/23 03:57:07;;;;;;;2.95;2.75;;;;;;;;;;5054646;28;20044;-71
2021/11/23 03:59:33;;;;;;;3.88;3.58;;;;;;;;;;5054834;28;20032;-67
2021/11/23 04:01:59;;;;;;;3.03;2.72;;;;;;;;;;5054551;28;20041;-66
2021/11/23 04:04:24;;;;;;;3.30;3.00;;;;;;;;;;5054926;28;20029;-69
2021/11/23 04:06:50;;;;;;;3.58;3.22;;;;;;;;;;5054814;28;20033;-70
2021/11/23 04:09:15;;;;;;;4.40;3.05;;;;;;;;;;5036711;28;20136;-70
2021/11/23 04:11:41;;;;;;;3.22;2.90;;;;;;;;;;5054536;28;20048;-70
2021/11/23 04:14:07;;;;;;;3.17;2.88;;;;;;;;;;5054210;28;20036;-70
2021/11/23 04:16:33;;;;;;;3.92;2.53;;;;;;;;;;5054139;28;20073;-70
2021/11/23 04:18:58;;;;;;;4.30;3.22;;;;;;;;;;5054180;28;20036;-70
2021/11/23 04:21:24;;;;;;;3.20;2.92;;;;;;;;;;5054375;28;20041;-70
2021/11/23 04:23:49;;;;;;;2.80;2.60;;;;;;;;;;5054270;28;20061;-70
2021/11/23 04:26:15;;;;;;;4.07;2.78;;;;;;;;;;5054125;28;20029;-69
2021/11/23 04:28:40;;;;;;;4.13;3.17;;;;;;;;;;5053936;28;20037;-70
2021/11/23 04:31:06;;;;;;;4.30;3.00;;;;;;;;;;5036261;28;20041;-70
2021/11/23 04:33:31;;;;;;;4.13;2.90;;;;;;;;;;5054154;28;20489;-65
2021/11/23 04:35:57;;;;;;;4.68;3.13;;;;;;;;;;5053995;28;20033;-70
2021/11/23 04:38:23;;;;;;;3.65;2.92;;;;;;;;;;5054120;28;20032;-70
2021/11/23 04:40:49;;;;;;;4.70;2.95;;;;;;;;;;5053872;28;20051;-70
2021/11/23 04:43:15;;;;;;;4.18;2.83;;;;;;;;;;5036147;28;20535;-71
2021/11/23 04:45:41;;;;;;;3.90;2.80;;;;;;;;;;5053977;28;20037;-70
2021/11/23 04:48:07;;;;;;;3.55;2.53;;;;;;;;;;5053630;28;20121;-70
2021/11/23 04:50:32;;;;;;;3.60;2.75;;;;;;;;;;5053844;28;20039;-71
2021/11/23 04:52:58;;;;;;;3.67;2.83;;;;;;;;;;5053967;28;20111;-70
2021/11/23 04:55:23;;;;;;;3.33;2.95;;;;;;;;;;5035942;28;20520;-69
2021/11/23 04:57:49;;;;;;;3.75;2.72;;;;;;;;;;5053628;28;20028;-70
2021/11/23 05:00:15;;;;;;;4.40;2.88;;;;;;;;;;5053392;28;20041;-71
2021/11/23 05:02:41;;;;;;;2.60;2.40;;;;;;;;;;5035700;28;20061;-71
2021/11/23 05:05:07;;;;;;;2.97;2.42;;;;;;;;;;5035610;28;20048;-71
2021/11/23 05:07:32;;;;;;;3.10;2.70;;;;;;;;;;5053454;28;20080;-71
2021/11/23 05:09:58;;;;;;;3.05;2.35;;;;;;;;;;5053442;28;20033;-70
2021/11/23 05:12:23;;;;;;;2.97;2.30;;;;;;;;;;5053173;28;20373;-71
2021/11/23 05:14:51;;;;;;;2.63;2.40;;;;;;;;;;5035827;28;20124;-71
2021/11/23 05:17:16;;;;;;;3.97;2.53;;;;;;;;;;5053578;28;20033;-71
2021/11/23 05:19:42;;;;;;;2.75;2.20;;;;;;;;;;5053330;28;20396;-71
2021/11/23 05:22:08;;;;;;;3.13;2.58;;;;;;;;;;5053065;28;20033;-71
2021/11/23 05:24:33;;;;;;;3.40;2.70;;;;;;;;;;5052472;28;20186;-71
2021/11/23 05:26:59;;;;;;;3.97;3.00;;;;;;;;;;5053324;28;20025;-71
2021/11/23 05:29:25;;;;;;;3.45;2.92;;;;;;;;;;5053241;28;20489;-71
2021/11/23 05:31:51;;;;;;;4.72;2.75;;;;;;;;;;5053475;28;20052;-71
2021/11/23 05:34:16;;;;;;;4.30;3.40;;;;;;;;;;5053126;28;20048;-71
2021/11/23 05:36:44;;;;;;;5.07;3.53;;;;;;;;;;5052451;28;20488;-71
2021/11/23 05:39:10;;;;;;;5.35;3.45;;;;;;;;;;5052863;28;20128;-71
2021/11/23 05:41:36;;;;;;;5.03;3.30;;;;;;;;;;5052743;28;20107;-70
2021/11/23 05:44:01;;;;;;;5.70;3.95;;;;;;;;;;5034944;28;20099;-71
2021/11/23 05:46:27;;;;;;;4.47;3.58;;;;;;;;;;5052994;28;20485;-71
2021/11/23 05:48:54;;;;;;;5.15;3.63;;;;;;;;;;5053038;28;20045;-71
2021/11/23 05:51:20;;;;;;;5.95;3.90;;;;;;;;;;5053150;28;20045;-70
2021/11/23 05:53:45;;;;;;;7.32;3.92;;;;;;;;;;5053139;28;20041;-71
2021/11/23 05:56:11;;;;;;;5.55;4.10;;;;;;;;;;5053136;28;20036;-71
2021/11/23 05:58:36;;;;;;;4.53;3.60;;;;;;;;;;5053069;28;20061;-71
2021/11/23 06:01:02;;;;;;;5.65;3.90;;;;;;;;;;5052981;28;20461;-71
2021/11/23 06:03:28;;;;;;;4.78;3.75;;;;;;;;;;5052598;28;20045;-71
2021/11/23 06:05:54;;;;;;;5.60;4.10;;;;;;;;;;5052995;28;20029;-71
2021/11/23 06:08:19;;;;;;;4.75;4.25;;;;;;;;;;5053070;28;20045;-72
2021/11/23 06:10:44;;;;;;;6.47;4.32;;;;;;;;;;5052932;28;20025;-73
2021/11/23 06:13:11;;;;;;;5.68;4.43;;;;;;;;;;5052657;28;20037;-74
2021/11/23 06:15:38;;;;;;;5.38;3.88;;;;;;;;;;5052759;28;20057;-73
2021/11/23 06:18:05;;;;;;;6.68;4.25;;;;;;;;;;5055238;28;20495;-72
2021/11/23 06:20:31;;;;;;;5.30;3.70;;;;;;;;;;5038878;28;20043;-72
2021/11/23 06:23:01;;;;;;;7.82;4.07;;;;;;;;;;5056625;28;20041;-72
2021/11/23 06:25:27;;;;;;;5.07;4.25;;;;;;;;;;5056443;28;20409;-72
2021/11/23 06:27:54;;;;;;;6.38;5.20;;;;;;;;;;5056382;28;20033;-72
2021/11/23 06:30:19;;;;;;;6.55;4.70;;;;;;;;;;5056340;28;20473;-72
2021/11/23 06:32:45;;;;;;;5.80;4.72;;;;;;;;;;5056622;28;20056;-72
2021/11/23 06:35:11;;;;;;;5.72;4.50;;;;;;;;;;5056620;28;20464;-73
2021/11/23 06:37:37;;;;;;;5.57;4.70;;;;;;;;;;5056312;28;20040;-72
2021/11/23 06:40:04;;;;;;;6.18;5.10;;;;;;;;;;5056617;28;20033;-72
2021/11/23 06:42:30;;;;;;;6.22;4.82;;;;;;;;;;5056236;28;20041;-73
2021/11/23 06:44:55;;;;;;;5.70;4.97;;;;;;;;;;5056201;28;20025;-72
2021/11/23 06:47:21;;;;;;;5.38;4.88;;;;;;;;;;5055600;28;20045;-72
2021/11/23 06:49:48;;;;;;;7.22;5.47;;;;;;;;;;5056366;28;20148;-72
2021/11/23 06:52:14;;;;;;;7.38;4.97;;;;;;;;;;5055411;28;20032;-72
2021/11/23 06:54:40;;;;;;;5.03;3.88;;;;;;;;;;5055854;28;20033;-71
2021/11/23 06:57:06;;;;;;;5.03;3.72;;;;;;;;;;5055921;28;20032;-72
2021/11/23 06:59:31;;;;;;;6.38;4.65;;;;;;;;;;5056034;28;20045;-71
2021/11/23 07:01:57;;;;;;;6.78;5.15;;;;;;;;;;5055847;28;20436;-71
2021/11/23 07:04:22;;;;;;;6.72;5.10;;;;;;;;;;5055674;28;20033;-71
2021/11/23 07:06:48;;;;;;;7.45;5.00;;;;;;;;;;5055835;28;20071;-71
2021/11/23 07:09:15;;;;;;;6.40;4.22;;;;;;;;;;5055744;28;20037;-71
2021/11/23 07:11:40;;;;;;;7.78;4.53;;;;;;;;;;5037577;28;20029;-71
2021/11/23 07:14:07;;;;;;;5.47;4.82;;;;;;;;;;5055665;28;20033;-75
2021/11/23 07:16:33;;;;;;;9.10;5.38;;;;;;;;;;5055733;28;20033;-75
2021/11/23 07:18:59;;;;;;;9.25;5.55;;;;;;;;;;5055674;28;20048;-75
2021/11/23 07:21:25;;;;;;;5.38;4.50;;;;;;;;;;5055799;28;20021;-75
2021/11/23 07:23:50;;;;;;;6.80;5.25;;;;;;;;;;5055499;28;20033;-75
2021/11/23 07:26:16;;;;;;;7.47;5.07;;;;;;;;;;5055507;28;20036;-75
2021/11/23 07:28:41;;;;;;;6.97;4.82;;;;;;;;;;5055302;28;20082;-75
2021/11/23 07:31:08;;;;;;;6.93;4.95;;;;;;;;;;5037779;28;20029;-75
2021/11/23 07:33:34;;;;;;;6.90;4.65;;;;;;;;;;5055467;28;20496;-75
2021/11/23 07:35:59;;;;;;;6.65;4.47;;;;;;;;;;5055328;28;20033;-75
2021/11/23 07:38:25;;;;;;;6.82;5.00;;;;;;;;;;5037518;28;20059;-75
2021/11/23 07:40:50;;;;;;;6.82;4.57;;;;;;;;;;5055478;28;20385;-75
2021/11/23 07:43:16;;;;;;;5.82;4.40;;;;;;;;;;5054889;28;20037;-75
2021/11/23 07:45:41;;;;;;;7.28;4.63;;;;;;;;;;5055254;28;20029;-75
2021/11/23 07:48:08;;;;;;;6.93;4.35;;;;;;;;;;5054472;28;20611;-75
2021/11/23 07:50:34;;;;;;;6.28;4.47;;;;;;;;;;5054570;28;20040;-75
2021/11/23 07:53:00;;;;;;;7.63;5.25;;;;;;;;;;5055076;28;20037;-75
2021/11/23 07:55:25;;;;;;;5.50;4.78;;;;;;;;;;5054014;28;20036;-75
2021/11/23 07:57:51;;;;;;;6.07;4.43;;;;;;;;;;5053677;28;20041;-75
2021/11/23 08:00:17;;;;;;;7.13;4.65;;;;;;;;;;5054527;28;20055;-75
2021/11/23 08:02:43;;;;;;;7.07;4.25;;;;;;;;;;5054621;28;20065;-75
2021/11/23 08:05:08;;;;;;;7.90;4.88;;;;;;;;;;5036554;28;20063;-75
2021/11/23 08:07:34;;;;;;;5.03;4.28;;;;;;;;;;5036567;28;20051;-75
2021/11/23 08:09:59;;;;;;;6.47;4.72;;;;;;;;;;5054557;28;20061;-75
2021/11/23 08:12:26;;;;;;;5.55;4.47;;;;;;;;;;5036445;28;20064;-75
2021/11/23 08:14:51;;;;;;;6.30;4.72;;;;;;;;;;5054731;28;20048;-76
2021/11/23 08:17:17;;;;;;;5.18;4.68;;;;;;;;;;5054605;28;20128;-75
2021/11/23 08:19:42;;;;;;;4.05;3.65;;;;;;;;;;5054128;28;20476;-75
2021/11/23 08:22:08;;;;;;;6.22;3.45;;;;;;;;;;5054139;28;20053;-75
2021/11/23 08:24:33;;;;;;;5.28;4.15;;;;;;;;;;5054252;28;20029;-75
2021/11/23 08:27:00;;;;;;;4.85;4.20;;;;;;;;;;5036095;28;20082;-75
2021/11/23 08:29:25;;;;;;;4.97;3.35;;;;;;;;;;5036220;28;20021;-75
2021/11/23 08:31:52;;;;;;;5.97;4.05;;;;;;;;;;5054374;28;20047;-75
2021/11/23 08:34:21;;;;;;;4.78;4.22;;;;;;;;;;5054067;28;20032;-75
2021/11/23 08:36:48;;;;;;;3.60;3.13;;;;;;;;;;5044732;28;20028;-74
2021/11/23 08:39:14;;;;;;;4.72;4.22;;;;;;;;;;5052568;28;20527;-74
2021/11/23 08:41:40;;;;;;;5.20;4.32;;;;;;;;;;5052594;28;20152;-75
2021/11/23 08:44:05;;;;;;;4.43;3.97;;;;;;;;;;5034704;28;20029;-74
2021/11/23 08:46:31;;;;;;;5.18;3.85;;;;;;;;;;5053949;28;20495;-74
2021/11/23 08:48:56;;;;;;;7.88;3.75;;;;;;;;;;5053612;28;20045;-74
2021/11/23 08:51:25;;;;;;;4.50;3.67;;;;;;;;;;5053950;28;20033;-74
2021/11/23 08:53:51;;;;;;;4.45;3.55;;;;;;;;;;5053424;28;20151;-74
2021/11/23 08:56:17;;;;;;;4.97;3.53;;;;;;;;;;5053674;28;20052;-74
2021/11/23 08:58:44;;;;;;;9.63;3.38;;;;;;;;;;5053920;28;20021;-74
2021/11/23 09:01:10;;;;;;;4.72;2.95;;;;;;;;;;5053366;28;20029;-74
2021/11/23 09:03:38;;;;;;;3.50;2.95;;;;;;;;;;5053422;28;20392;-74
2021/11/23 09:06:04;;;;;;;3.33;2.97;;;;;;;;;;5035829;28;20127;-74
2021/11/23 09:08:30;;;;;;;5.20;3.15;;;;;;;;;;5053638;28;20116;-74
2021/11/23 09:10:56;;;;;;;4.55;3.10;;;;;;;;;;5052803;28;20036;-74
2021/11/23 09:13:23;;;;;;;6.32;3.72;;;;;;;;;;5051874;28;20043;-74
2021/11/23 09:15:48;;;;;;;6.45;3.60;;;;;;;;;;5053035;28;20135;-74
2021/11/23 09:18:14;;;;;;;6.18;3.83;;;;;;;;;;5053119;28;20121;-74
2021/11/23 09:20:40;;;;;;;5.47;3.65;;;;;;;;;;5053088;28;20052;-74
2021/11/23 09:23:05;;;;;;;4.65;3.00;;;;;;;;;;5053117;28;20029;-74
2021/11/23 09:25:33;;;;;;;4.47;3.17;;;;;;;;;;5053524;28;20033;-75
2021/11/23 09:28:00;;;;;;;5.30;3.72;;;;;;;;;;5053398;28;20025;-74
2021/11/23 09:30:26;;;;;;;4.95;3.33;;;;;;;;;;5053197;28;20036;-74
2021/11/23 09:32:52;;;;;;;4.47;3.55;;;;;;;;;;5035494;28;20088;-74
2021/11/23 09:35:19;;;;;;;3.40;2.92;;;;;;;;;;5053222;28;20095;-74
2021/11/23 09:37:45;;;;;;;4.13;3.22;;;;;;;;;;5052994;28;20029;-74
2021/11/23 09:40:11;;;;;;;4.22;3.58;;;;;;;;;;5052922;28;20033;-74
2021/11/23 09:42:37;;;;;;;6.70;3.63;;;;;;;;;;5053028;28;20056;-75
2021/11/23 09:45:04;;;;;;;7.38;3.58;;;;;;;;;;5053159;28;20037;-74
2021/11/23 09:47:29;;;;;;;5.50;3.47;;;;;;;;;;5052435;28;20143;-75
2021/11/23 09:49:57;;;;;;;7.72;4.00;;;;;;;;;;5053251;28;20115;-75
2021/11/23 09:52:22;;;;;;;4.88;3.63;;;;;;;;;;5054258;28;20033;-74
2021/11/23 09:54:48;;;;;;;7.50;4.70;;;;;;;;;;5056981;28;20374;-75
2021/11/23 09:57:13;;;;;;;7.20;3.65;;;;;;;;;;5056934;28;20036;-75
2021/11/23 09:59:39;;;;;;;5.03;3.67;;;;;;;;;;5056640;28;20120;-74
2021/11/23 10:02:04;;;;;;;4.50;3.38;;;;;;;;;;5056733;28;20025;-75
2021/11/23 10:04:30;;;;;;;4.38;3.05;;;;;;;;;;5039321;28;20036;-75
2021/11/23 10:06:58;;;;;;;5.05;3.17;;;;;;;;;;5039108;28;20485;-75
2021/11/23 10:09:30;;;;;;;6.53;3.30;;;;;;;;;;5056406;28;20037;-75
2021/11/23 10:12:17;;;;;;;4.32;2.63;;;;;;;;;;5057071;28;20045;-75
2021/11/23 10:15:01;;;;;;;3.88;2.85;;;;;;;;;;5057072;28;20041;-73
2021/11/23 10:17:27;;;;;;;5.82;3.65;;;;;;;;;;5038894;28;20576;-73
2021/11/23 10:19:52;;;;;;;4.60;2.90;;;;;;;;;;5056475;28;20060;-72
2021/11/23 10:22:30;;;;;;;5.50;2.97;;;;;;;;;;5056289;28;20091;-73
2021/11/23 10:25:03;;;;;;;6.05;2.70;;;;;;;;;;5056545;28;20123;-73
2021/11/23 10:27:29;;;;;;;5.28;2.90;;;;;;;;;;5056648;28;20480;-73
2021/11/23 10:29:57;;;;;;;4.00;2.53;;;;;;;;;;5056271;28;20029;-73
2021/11/23 10:32:23;;;;;;;3.75;2.63;;;;;;;;;;5038882;28;20033;-73
2021/11/23 10:34:49;;;;;;;4.30;2.92;;;;;;;;;;5038513;28;20400;-73
2021/11/23 10:37:30;;;;;;;4.88;3.05;;;;;;;;;;5056451;28;20110;-72
2021/11/23 10:40:09;;;;;;;5.82;3.30;;;;;;;;;;5056767;28;20043;-73
2021/11/23 10:42:34;;;;;;;4.78;2.58;;;;;;;;;;5056223;28;20392;-73
2021/11/23 10:45:02;;;;;;;3.17;2.88;;;;;;;;;;5056354;28;20032;-73
2021/11/23 10:47:34;;;;;;;3.55;2.75;;;;;;;;;;5055827;28;20052;-73
2021/11/23 10:50:02;;;;;;;3.28;2.47;;;;;;;;;;5021828;28;20507;-73
2021/11/23 10:52:35;;;;;;;5.10;3.03;;;;;;;;;;5037666;28;20483;-73
2021/11/23 10:55:06;;;;;;;3.65;2.90;;;;;;;;;;5056022;28;20037;-73
2021/11/23 10:57:39;;;;;;;4.53;3.33;;;;;;;;;;5055777;28;20047;-72
2021/11/23 11:00:05;;;;;;;3.60;2.63;;;;;;;;;;5055900;28;20033;-72
2021/11/23 11:02:31;;;;;;;3.50;2.42;;;;;;;;;;5055418;28;20110;-72
2021/11/23 11:04:57;;;;;;;4.82;2.95;;;;;;;;;;5055300;28;20041;-72
2021/11/23 11:07:25;;;;;;;5.32;3.10;;;;;;;;;;5055765;28;20135;-72
2021/11/23 11:09:51;;;;;;;2.92;2.60;;;;;;;;;;5055675;28;20044;-72
2021/11/23 11:12:17;;;;;;;5.70;2.70;;;;;;;;;;5055801;28;20025;-72
2021/11/23 11:14:45;;;;;;;3.72;2.65;;;;;;;;;;5055546;28;20132;-72
2021/11/23 11:17:11;;;;;;;3.35;2.50;;;;;;;;;;5055631;28;20082;-74
2021/11/23 11:19:46;;;;;;;6.65;3.22;;;;;;;;;;5055576;28;20037;-74
2021/11/23 11:22:13;;;;;;;4.32;2.83;;;;;;;;;;5055604;28;20071;-75
2021/11/23 11:27:25;;;;;;;4.93;3.03;;;;;;;;;;5055574;28;20120;-74
2021/11/23 11:29:50;;;;;;;4.25;3.25;;;;;;;;;;5055454;28;20037;-74
2021/11/23 11:32:36;;;;;;;4.47;2.92;;;;;;;;;;5055332;28;20108;-74
2021/11/23 11:35:31;;;;;;;5.45;3.30;;;;;;;;;;5055321;28;20120;-74
2021/11/23 11:38:00;;;;;;;8.57;3.55;;;;;;;;;;5037220;28;20041;-73
2021/11/23 11:40:31;;;;;;;3.05;2.35;;;;;;;;;;5054947;28;20032;-74
2021/11/23 11:42:57;;;;;;;3.42;2.38;;;;;;;;;;5055172;28;20041;-73
2021/11/23 11:45:24;;;;;;;9.18;3.13;;;;;;;;;;5055065;28;20040;-73
2021/11/23 11:47:52;;;;;;;6.07;3.28;;;;;;;;;;5054616;28;20116;-74
2021/11/23 11:50:23;;;;;;;5.28;3.05;;;;;;;;;;5054840;28;20354;-73
2021/11/23 11:52:59;;;;;;;4.05;2.55;;;;;;;;;;5054785;28;20131;-74
2021/11/23 11:55:26;;;;;;;3.60;2.75;;;;;;;;;;5037112;28;20045;-74
2021/11/23 11:57:55;;;;;;;3.35;3.00;;;;;;;;;;5055080;28;20488;-74
2021/11/23 12:00:24;;;;;;;4.85;2.50;;;;;;;;;;5054444;28;20045;-75
2021/11/23 12:02:50;;;;;;;2.50;1.98;;;;;;;;;;5054657;28;20029;-73
2021/11/23 12:05:17;;;;;;;2.17;1.98;;;;;;;;;;5037047;28;20036;-73
2021/11/23 12:07:43;;;;;;;3.00;2.35;;;;;;;;;;5055041;28;20052;-74
2021/11/23 12:10:15;;;;;;;5.20;2.40;;;;;;;;;;5054419;28;20037;-74
2021/11/23 12:12:50;;;;;;;4.75;2.42;;;;;;;;;;5054878;28;20115;-74
2021/11/23 12:15:24;;;;;;;4.25;3.08;;;;;;;;;;5035670;28;20061;-74
2021/11/23 12:17:54;;;;;;;6.70;3.10;;;;;;;;;;5054779;28;20116;-72
2021/11/23 12:20:28;;;;;;;5.38;3.22;;;;;;;;;;5054606;28;20041;-72
2021/11/23 12:23:12;;;;;;;2.30;1.52;;;;;;;;;;5054180;28;20052;-71
2021/11/23 12:25:49;;;;;;;9.85;4.63;;;;;;;;;;5054538;28;20045;-72
2021/11/23 12:28:15;;;;;;;8.20;4.63;;;;;;;;;;5054444;28;20044;-75
2021/11/23 12:30:41;;;;;;;10.98;4.85;;;;;;;;;;5054019;28;20037;-57
2021/11/23 12:33:07;;;;;;;8.23;4.80;;;;;;;;;;5053923;28;20037;-72
2021/11/23 12:35:36;;;;;;;8.00;5.38;;;;;;;;;;5053907;28;20052;-74
2021/11/23 12:38:03;;;;;;;7.75;4.38;;;;;;;;;;5054285;28;20127;-74
2021/11/23 12:40:31;;;;;;;6.65;4.22;;;;;;;;;;5054007;28;20029;-73
2021/11/23 12:43:01;;;;;;;9.98;4.55;;;;;;;;;;5054492;28;20033;-74
2021/11/23 12:45:39;;;;;;;11.32;6.05;;;;;;;;;;5054439;28;20528;-74
2021/11/23 12:48:08;;;;;;;9.00;4.22;;;;;;;;;;5053699;28;20072;-74
2021/11/23 12:50:36;;;;;;;9.98;4.95;;;;;;;;;;5053614;28;20039;-74
2021/11/23 12:53:02;;;;;;;7.35;3.85;;;;;;;;;;5054009;28;20040;-74
2021/11/23 12:55:27;;;;;;;8.27;3.65;;;;;;;;;;5035560;28;20040;-71
2021/11/23 12:57:53;;;;;;;10.23;4.43;;;;;;;;;;5053638;28;20063;-71
2021/11/23 13:00:19;;;;;;;7.38;3.55;;;;;;;;;;5053707;28;20542;-71
2021/11/23 13:02:50;;;;;;;7.90;4.15;;;;;;;;;;5035638;28;20044;-71
2021/11/23 13:05:24;;;;;;;9.25;4.38;;;;;;;;;;5053448;28;20098;-70
2021/11/23 13:07:54;;;;;;;7.65;4.20;;;;;;;;;;5053751;28;20033;-71
2021/11/23 13:10:24;;;;;;;7.35;3.72;;;;;;;;;;5053493;28;20045;-71
2021/11/23 13:12:52;;;;;;;4.43;2.20;;;;;;;;;;5053618;28;20499;-70
2021/11/23 13:15:17;;;;;;;7.28;3.65;;;;;;;;;;5053661;28;20044;-70
2021/11/23 13:17:45;;;;;;;7.05;4.13;;;;;;;;;;5053356;28;20041;-71
2021/11/23 13:20:17;;;;;;;7.65;3.75;;;;;;;;;;5053786;28;20033;-70
2021/11/23 13:22:49;;;;;;;8.65;4.30;;;;;;;;;;5053112;28;20072;-71
2021/11/23 13:25:15;;;;;;;7.38;4.30;;;;;;;;;;5053241;28;20037;-70
2021/11/23 13:27:40;;;;;;;8.13;4.60;;;;;;;;;;5053321;28;20039;-71
2021/11/23 13:30:24;;;;;;;6.85;3.65;;;;;;;;;;5053528;28;20481;-70
2021/11/23 13:32:53;;;;;;;7.57;4.53;;;;;;;;;;5053427;28;20473;-70
2021/11/23 13:35:18;;;;;;;6.03;3.72;;;;;;;;;;5053109;28;20029;-70
2021/11/23 13:37:44;;;;;;;6.00;3.95;;;;;;;;;;5035405;28;20087;-70
2021/11/23 13:40:23;;;;;;;7.18;3.72;;;;;;;;;;5053079;28;20029;-70
2021/11/23 13:42:49;;;;;;;9.55;4.90;;;;;;;;;;5035343;28;20111;-70
2021/11/23 13:45:20;;;;;;;10.27;5.22;;;;;;;;;;5052958;28;20477;-71
2021/11/23 13:47:47;;;;;;;10.60;4.57;;;;;;;;;;5034735;28;20045;-70
2021/11/23 13:50:14;;;;;;;7.80;4.80;;;;;;;;;;5053511;28;20120;-70
2021/11/23 13:52:40;;;;;;;6.72;4.68;;;;;;;;;;5053138;28;20049;-73
2021/11/23 13:55:08;;;;;;;8.40;4.25;;;;;;;;;;5053122;28;20065;-73
2021/11/23 13:57:48;;;;;;;12.45;6.53;;;;;;;;;;5018527;28;20033;-73
2021/11/23 14:00:15;;;;;;;8.95;5.38;;;;;;;;;;5052837;28;20101;-73
2021/11/23 14:02:45;;;;;;;9.85;4.82;;;;;;;;;;5035632;28;20057;-73
2021/11/23 14:05:12;;;;;;;6.60;4.80;;;;;;;;;;5052977;28;20029;-73
2021/11/23 14:07:48;;;;;;;10.98;5.70;;;;;;;;;;5035182;28;20021;-73
2021/11/23 14:10:24;;;;;;;7.68;5.30;;;;;;;;;;5035701;28;20052;-73
2021/11/23 14:12:50;;;;;;;7.88;5.47;;;;;;;;;;5035094;28;20041;-73
2021/11/23 14:15:22;;;;;;;11.95;6.22;;;;;;;;;;5053013;28;20029;-73
2021/11/23 14:18:03;;;;;;;9.45;5.72;;;;;;;;;;5053020;28;20040;-73
2021/11/23 14:20:31;;;;;;;8.77;5.63;;;;;;;;;;5035045;28;20045;-73
2021/11/23 14:23:07;;;;;;;8.93;6.10;;;;;;;;;;5052857;28;20143;-73
2021/11/23 14:25:33;;;;;;;8.75;5.40;;;;;;;;;;5053159;28;20037;-73
2021/11/23 14:28:03;;;;;;;8.77;5.38;;;;;;;;;;5052936;28;20443;-73
2021/11/23 14:30:32;;;;;;;11.23;6.53;;;;;;;;;;5052851;28;20033;-73
2021/11/23 14:32:58;;;;;;;9.30;5.85;;;;;;;;;;5052585;28;20111;-73
2021/11/23 14:35:24;;;;;;;10.43;6.18;;;;;;;;;;5052778;28;20110;-73
2021/11/23 14:37:50;;;;;;;11.30;6.60;;;;;;;;;;5053388;28;20457;-73
2021/11/23 14:40:16;;;;;;;9.20;6.78;;;;;;;;;;5056502;28;20035;-72